createdAt,value
2019-05-23T00:01:55.756Z,40.90
2019-05-23T00:05:27.007Z,40.90
2019-05-23T00:08:41.298Z,41.00
2019-05-23T00:11:45.074Z,41.20
2019-05-23T00:14:47.361Z,40.80
2019-05-23T00:17:43.976Z,41.60
2019-05-23T00:20:40.570Z,41.60
2019-05-23T00:23:36.352Z,41.70
2019-05-23T00:26:31.631Z,41.70
2019-05-23T00:29:30.455Z,41.70
2019-05-23T00:32:40.015Z,41.80
2019-05-23T00:35:36.603Z,41.90
2019-05-23T00:38:32.667Z,42.00
2019-05-23T00:41:28.935Z,42.00
2019-05-23T00:44:25.264Z,42.00
2019-05-23T00:47:22.101Z,42.10
2019-05-23T00:50:19.561Z,42.10
2019-05-23T00:53:15.565Z,42.20
2019-05-23T00:56:12.324Z,42.40
2019-05-23T00:59:24.427Z,42.30
2019-05-23T01:02:07.299Z,42.50
2019-05-23T01:05:05.045Z,42.50
2019-05-23T01:08:02.988Z,42.50
2019-05-23T01:10:58.708Z,42.70
2019-05-23T01:13:55.366Z,42.60
2019-05-23T01:16:52.145Z,42.30
2019-05-23T01:19:51.510Z,42.20
2019-05-23T01:22:49.149Z,42.10
2019-05-23T01:25:46.597Z,42.00
2019-05-23T01:28:43.458Z,42.00
2019-05-23T01:31:40.884Z,42.10
2019-05-23T01:34:37.880Z,42.10
2019-05-23T01:37:34.540Z,42.30
2019-05-23T01:40:31.426Z,42.40
2019-05-23T01:43:27.562Z,42.40
2019-05-23T01:46:23.542Z,42.30
2019-05-23T01:49:19.885Z,42.20
2019-05-23T01:52:16.949Z,42.00
2019-05-23T01:55:14.140Z,42.00
2019-05-23T01:58:10.401Z,42.00
2019-05-23T02:01:07.038Z,42.00
2019-05-23T02:04:03.741Z,42.00
2019-05-23T02:07:00.275Z,42.00
2019-05-23T02:09:56.020Z,42.00
2019-05-23T02:12:52.534Z,42.00
2019-05-23T02:15:49.364Z,42.20
2019-05-23T02:18:46.322Z,42.00
2019-05-23T02:21:43.045Z,41.90
2019-05-23T02:24:40.244Z,41.90
2019-05-23T02:27:37.587Z,41.80
2019-05-23T02:30:36.071Z,41.80
2019-05-23T02:33:31.362Z,42.00
2019-05-23T02:36:27.818Z,42.00
2019-05-23T02:39:48.450Z,42.10
2019-05-23T02:42:47.121Z,42.20
2019-05-23T02:45:45.487Z,42.10
2019-05-23T02:48:44.977Z,42.20
2019-05-23T02:51:42.687Z,42.10
2019-05-23T02:54:42.418Z,42.10
2019-05-23T02:57:39.026Z,42.00
2019-05-23T03:00:55.892Z,42.00
2019-05-23T03:03:51.518Z,42.10
2019-05-23T03:06:47.518Z,42.20
2019-05-23T03:09:44.362Z,42.40
2019-05-23T03:12:40.885Z,42.50
2019-05-23T03:15:38.150Z,42.60
2019-05-23T03:18:35.981Z,42.70
2019-05-23T03:21:32.541Z,42.70
2019-05-23T03:24:29.866Z,42.70
2019-05-23T03:27:27.939Z,42.60
2019-05-23T03:30:28.389Z,42.60
2019-05-23T03:33:28.040Z,42.70
2019-05-23T03:36:27.322Z,42.80
2019-05-23T03:39:34.915Z,42.90
2019-05-23T03:42:58.341Z,43.10
2019-05-23T03:46:07.088Z,43.40
2019-05-23T03:49:19.440Z,43.20
2019-05-23T03:52:39.821Z,43.30
2019-05-23T03:55:48.381Z,43.20
2019-05-23T03:58:59.108Z,43.10
2019-05-23T04:02:32.860Z,42.90
2019-05-23T04:05:51.765Z,43.00
2019-05-23T04:08:52.087Z,42.90
2019-05-23T04:11:49.016Z,43.20
2019-05-23T04:14:46.998Z,43.10
2019-05-23T04:17:54.448Z,42.90
2019-05-23T04:20:51.302Z,42.70
2019-05-23T04:23:54.886Z,42.50
2019-05-23T04:26:53.583Z,42.20
2019-05-23T04:29:51.504Z,42.20
2019-05-23T04:32:51.593Z,42.20
2019-05-23T04:36:09.131Z,42.10
2019-05-23T04:39:13.783Z,42.00
2019-05-23T04:42:15.585Z,41.70
2019-05-23T04:45:26.733Z,41.50
2019-05-23T04:48:35.787Z,41.40
2019-05-23T04:51:37.312Z,41.20
2019-05-23T04:54:35.702Z,41.00
2019-05-23T04:57:38.613Z,41.00
2019-05-23T05:00:44.477Z,40.90
2019-05-23T05:03:50.517Z,40.70
2019-05-23T05:06:53.276Z,40.20
2019-05-23T05:10:08.364Z,40.00
2019-05-23T05:21:37.144Z,39.60
2019-05-23T05:25:08.651Z,39.40
2019-05-23T05:28:35.206Z,39.10
2019-05-23T05:35:55.460Z,38.30
2019-05-23T05:39:55.977Z,37.90
2019-05-23T05:43:20.596Z,37.90
2019-05-23T05:50:32.785Z,37.70
2019-05-23T05:54:02.074Z,37.00
2019-05-23T06:04:27.847Z,36.10
2019-05-23T06:14:46.781Z,35.40
2019-05-23T06:17:55.050Z,35.20
2019-05-23T06:20:52.742Z,35.20
2019-05-23T06:23:53.473Z,35.20
2019-05-23T06:27:09.323Z,35.20
2019-05-23T06:30:34.592Z,35.20
2019-05-23T06:33:51.391Z,35.00
2019-05-23T06:37:06.542Z,34.20
2019-05-23T06:40:17.020Z,34.40
2019-05-23T06:43:22.445Z,34.30
2019-05-23T06:46:23.097Z,33.90
2019-05-23T06:49:21.541Z,33.50
2019-05-23T06:52:21.563Z,32.90
2019-05-23T06:55:21.671Z,32.10
2019-05-23T06:58:21.314Z,32.10
2019-05-23T07:01:21.039Z,31.90
2019-05-23T07:04:52.267Z,31.30
2019-05-23T07:08:30.497Z,31.10
2019-05-23T07:11:38.448Z,30.90
2019-05-23T07:15:31.620Z,30.60
2019-05-23T07:24:06.414Z,30.20
2019-05-23T07:27:40.644Z,30.30
2019-05-23T07:34:44.174Z,30.20
2019-05-23T07:42:28.467Z,29.90
2019-05-23T07:46:08.532Z,29.70
2019-05-23T07:49:46.616Z,29.10
2019-05-23T07:53:21.661Z,29.00
2019-05-23T07:56:44.036Z,28.40
2019-05-23T07:59:50.894Z,28.30
2019-05-23T08:03:35.707Z,28.50
2019-05-23T08:06:49.320Z,28.50
2019-05-23T08:17:15.994Z,28.20
2019-05-23T08:20:17.823Z,27.90
2019-05-23T08:23:18.518Z,27.80
2019-05-23T08:26:23.028Z,27.50
2019-05-23T08:29:34.558Z,27.00
2019-05-23T08:36:09.011Z,26.40
2019-05-23T08:39:17.940Z,26.70
2019-05-23T08:42:59.011Z,26.70
2019-05-23T08:46:35.541Z,26.50
2019-05-23T08:50:13.348Z,26.20
2019-05-23T08:53:27.427Z,26.00
2019-05-23T08:56:27.281Z,26.00
2019-05-23T08:59:31.877Z,25.70
2019-05-23T09:02:58.035Z,25.70
2019-05-23T09:06:15.962Z,25.40
2019-05-23T09:12:50.591Z,25.10
2019-05-23T09:16:01.182Z,25.10
2019-05-23T09:19:11.144Z,25.20
2019-05-23T09:22:30.793Z,25.50
2019-05-23T09:26:01.076Z,25.20
2019-05-23T09:30:32.427Z,25.00
2019-05-23T09:33:11.554Z,25.00
2019-05-23T09:43:49.401Z,24.60
2019-05-23T09:47:00.933Z,24.50
2019-05-23T09:50:08.043Z,24.30
2019-05-23T09:53:13.116Z,24.40
2019-05-23T09:56:11.221Z,24.50
2019-05-23T09:59:11.869Z,24.60
2019-05-23T10:02:14.124Z,24.80
2019-05-23T10:05:12.640Z,24.80
2019-05-23T10:08:23.759Z,25.00
2019-05-23T10:11:35.841Z,24.80
2019-05-23T10:14:40.152Z,24.50
2019-05-23T10:17:41.685Z,24.70
2019-05-23T10:20:42.751Z,24.60
2019-05-23T10:23:45.172Z,24.40
2019-05-23T10:26:45.857Z,24.40
2019-05-23T10:30:12.375Z,24.50
2019-05-23T10:33:19.474Z,24.40
2019-05-23T10:39:59.565Z,24.50
2019-05-23T10:43:17.087Z,24.20
2019-05-23T10:46:23.494Z,24.30
2019-05-23T10:49:32.010Z,24.40
2019-05-23T10:52:50.194Z,24.20
2019-05-23T10:56:24.320Z,24.00
2019-05-23T11:03:22.459Z,24.20
2019-05-23T11:06:37.152Z,24.10
2019-05-23T11:10:01.038Z,24.30
2019-05-23T11:13:00.463Z,24.30
2019-05-23T11:16:17.622Z,24.30
2019-05-23T11:19:30.001Z,24.30
2019-05-23T11:22:31.629Z,24.10
2019-05-23T11:25:31.420Z,23.80
2019-05-23T11:28:30.120Z,23.60
2019-05-23T11:31:41.453Z,23.30
2019-05-23T11:34:45.734Z,23.40
2019-05-23T11:37:47.795Z,23.50
2019-05-23T11:40:46.549Z,23.40
2019-05-23T11:43:46.384Z,23.30
2019-05-23T11:46:50.184Z,23.30
2019-05-23T11:49:55.008Z,23.10
2019-05-23T11:52:57.004Z,23.00
2019-05-23T11:56:14.445Z,23.00
2019-05-23T11:59:21.024Z,22.90
2019-05-23T12:02:27.802Z,23.00
2019-05-23T12:05:46.838Z,23.10
2019-05-23T12:08:56.726Z,23.20
2019-05-23T12:12:02.409Z,23.10
2019-05-23T12:15:08.043Z,23.30
2019-05-23T12:18:12.530Z,23.20
2019-05-23T12:21:18.539Z,23.20
2019-05-23T12:24:19.642Z,23.30
2019-05-23T12:27:21.043Z,23.40
2019-05-23T12:30:52.239Z,23.50
2019-05-23T12:33:59.897Z,23.50
2019-05-23T12:37:18.630Z,23.60
2019-05-23T12:40:11.397Z,23.80
2019-05-23T12:43:05.394Z,23.90
2019-05-23T12:46:02.090Z,24.00
2019-05-23T12:49:06.363Z,24.10
2019-05-23T12:52:02.867Z,24.20
2019-05-23T12:55:00.704Z,24.30
2019-05-23T12:58:02.139Z,24.20
2019-05-23T13:01:09.827Z,24.40
2019-05-23T13:04:13.065Z,24.50
2019-05-23T13:07:35.543Z,24.60
2019-05-23T13:10:52.031Z,24.70
2019-05-23T13:18:01.527Z,24.70
2019-05-23T13:21:22.811Z,24.70
2019-05-23T13:24:26.076Z,24.80
2019-05-23T13:28:04.718Z,25.00
2019-05-23T13:30:57.908Z,25.00
2019-05-23T13:33:54.130Z,25.00
2019-05-23T13:36:50.504Z,25.10
2019-05-23T13:39:47.490Z,25.20
2019-05-23T13:42:43.956Z,25.20
2019-05-23T13:45:40.513Z,25.20
2019-05-23T13:48:36.357Z,25.30
2019-05-23T13:51:33.423Z,25.40
2019-05-23T13:54:29.891Z,25.50
2019-05-23T13:57:26.566Z,25.60
2019-05-23T14:00:23.659Z,25.60
2019-05-23T14:03:20.046Z,25.60
2019-05-23T14:06:16.233Z,25.70
2019-05-23T14:09:14.616Z,25.70
2019-05-23T14:12:26.530Z,25.70
2019-05-23T14:15:10.453Z,25.80
2019-05-23T14:18:06.696Z,25.80
2019-05-23T14:21:04.177Z,25.80
2019-05-23T14:24:00.482Z,25.80
2019-05-23T14:27:02.815Z,25.80
2019-05-23T14:30:09.673Z,25.80
2019-05-23T14:32:59.477Z,25.80
2019-05-23T14:35:59.343Z,25.80
2019-05-23T14:39:00.690Z,25.90
2019-05-23T14:42:05.512Z,25.90
2019-05-23T14:45:01.996Z,26.00
2019-05-23T14:48:04.570Z,26.10
2019-05-23T14:51:08.237Z,26.10
2019-05-23T14:54:21.999Z,26.10
2019-05-23T14:57:18.976Z,26.20
2019-05-23T15:00:17.364Z,26.20
2019-05-23T15:03:13.896Z,26.30
2019-05-23T15:06:11.223Z,26.40
2019-05-23T15:09:08.682Z,26.50
2019-05-23T15:12:05.231Z,26.60
2019-05-23T15:15:03.055Z,26.70
2019-05-23T15:18:01.018Z,26.90
2019-05-23T15:20:58.540Z,27.10
2019-05-23T15:23:56.794Z,27.40
2019-05-23T15:26:54.614Z,27.60
2019-05-23T15:29:51.657Z,27.90
2019-05-23T15:32:48.516Z,28.20
2019-05-23T15:35:47.152Z,28.60
2019-05-23T15:38:44.217Z,28.80
2019-05-23T15:41:41.158Z,29.00
2019-05-23T15:44:37.763Z,29.10
2019-05-23T15:47:35.917Z,29.30
2019-05-23T15:50:36.242Z,29.50
2019-05-23T15:53:48.550Z,29.70
2019-05-23T15:56:53.796Z,29.80
2019-05-23T15:59:53.495Z,30.00
2019-05-23T16:02:57.318Z,30.20
2019-05-23T16:05:56.087Z,30.40
2019-05-23T16:08:55.487Z,30.40
2019-05-23T16:11:52.284Z,30.50
2019-05-23T16:14:49.190Z,30.70
2019-05-23T16:17:45.236Z,30.90
2019-05-23T16:20:45.479Z,31.10
2019-05-23T16:23:42.833Z,31.30
2019-05-23T16:26:39.797Z,31.40
2019-05-23T16:29:37.199Z,31.70
2019-05-23T16:32:33.255Z,31.80
2019-05-23T16:35:30.659Z,32.00
2019-05-23T16:38:30.828Z,32.10
2019-05-23T16:41:26.843Z,32.20
2019-05-23T16:44:23.796Z,32.30
2019-05-23T16:47:21.951Z,32.40
2019-05-23T16:50:18.526Z,32.50
2019-05-23T16:53:14.512Z,32.60
2019-05-23T16:56:19.863Z,32.60
2019-05-23T16:59:24.625Z,32.70
2019-05-23T17:02:44.673Z,32.70
2019-05-23T17:05:59.357Z,32.60
2019-05-23T17:09:13.471Z,32.70
2019-05-23T17:12:26.560Z,32.70
2019-05-23T17:15:40.408Z,32.70
2019-05-23T17:18:54.544Z,32.90
2019-05-23T17:22:13.760Z,32.90
2019-05-23T17:25:23.187Z,33.00
2019-05-23T17:28:40.320Z,33.10
2019-05-23T17:31:39.376Z,33.20
2019-05-23T17:34:35.740Z,33.30
2019-05-23T17:37:32.001Z,33.40
2019-05-23T17:40:29.329Z,33.50
2019-05-23T17:43:25.900Z,33.80
2019-05-23T17:46:22.030Z,33.80
2019-05-23T17:49:19.635Z,33.50
2019-05-23T17:52:16.008Z,33.90
2019-05-23T17:55:12.534Z,34.00
2019-05-23T17:58:09.124Z,34.20
2019-05-23T18:01:06.220Z,34.00
2019-05-23T18:04:03.038Z,34.10
2019-05-23T18:07:00.436Z,34.30
2019-05-23T18:09:56.885Z,34.40
2019-05-23T18:12:53.140Z,34.50
2019-05-23T18:15:50.021Z,34.60
2019-05-23T18:18:47.804Z,34.70
2019-05-23T18:21:45.293Z,34.80
2019-05-23T18:24:43.337Z,34.90
2019-05-23T18:27:40.853Z,35.00
2019-05-23T18:30:46.590Z,35.10
2019-05-23T18:33:44.903Z,35.30
2019-05-23T18:36:44.284Z,35.40
2019-05-23T18:39:41.808Z,35.40
2019-05-23T18:42:43.731Z,35.40
2019-05-23T18:45:41.430Z,35.60
2019-05-23T18:48:39.632Z,35.70
2019-05-23T18:51:37.634Z,36.40
2019-05-23T18:54:34.595Z,36.00
2019-05-23T18:57:34.197Z,36.20
2019-05-23T19:01:22.748Z,36.20
2019-05-23T19:04:19.244Z,36.40
2019-05-23T19:07:16.933Z,36.30
2019-05-23T19:10:14.328Z,36.40
2019-05-23T19:13:11.112Z,36.60
2019-05-23T19:16:09.260Z,36.60
2019-05-23T19:19:07.438Z,36.70
2019-05-23T19:22:05.243Z,36.80
2019-05-23T19:25:01.686Z,37.00
2019-05-23T19:27:59.797Z,36.90
2019-05-23T19:30:56.517Z,37.00
2019-05-23T19:33:53.427Z,37.10
2019-05-23T19:36:49.737Z,37.10
2019-05-23T19:39:50.112Z,37.20
2019-05-23T19:42:45.769Z,37.20
2019-05-23T19:45:42.886Z,37.20
2019-05-23T19:48:41.036Z,37.20
2019-05-23T19:51:39.200Z,37.30
2019-05-23T19:54:36.675Z,37.40
2019-05-23T19:57:33.193Z,37.50
2019-05-23T20:00:29.878Z,37.50
2019-05-23T20:03:26.420Z,37.60
2019-05-23T20:06:23.384Z,37.50
2019-05-23T20:09:21.199Z,37.60
2019-05-23T20:12:17.706Z,37.60
2019-05-23T20:15:14.335Z,37.70
2019-05-23T20:18:11.541Z,37.70
2019-05-23T20:21:08.263Z,37.70
2019-05-23T20:24:04.295Z,37.70
2019-05-23T20:27:00.602Z,37.70
2019-05-23T20:29:57.217Z,37.80
2019-05-23T20:32:53.556Z,37.90
2019-05-23T20:35:50.153Z,38.00
2019-05-23T20:38:47.492Z,38.00
2019-05-23T20:41:43.693Z,38.10
2019-05-23T20:44:40.220Z,38.20
2019-05-23T20:47:38.153Z,38.30
2019-05-23T20:50:35.353Z,38.40
2019-05-23T20:53:31.604Z,38.40
2019-05-23T20:56:28.146Z,38.50
2019-05-23T20:59:24.823Z,38.60
2019-05-23T21:02:21.814Z,38.70
2019-05-23T21:05:18.568Z,38.80
2019-05-23T21:08:14.269Z,38.90
2019-05-23T21:11:11.799Z,39.00
2019-05-23T21:14:08.632Z,39.10
2019-05-23T21:17:05.575Z,39.20
2019-05-23T21:20:03.245Z,39.30
2019-05-23T21:23:00.651Z,39.40
2019-05-23T21:26:03.548Z,39.60
2019-05-23T21:28:59.780Z,39.70
2019-05-23T21:31:57.113Z,39.80
2019-05-23T21:34:52.720Z,39.80
2019-05-23T21:37:48.653Z,39.90
2019-05-23T21:40:51.009Z,40.00
2019-05-23T21:43:47.171Z,40.10
2019-05-23T21:46:42.919Z,40.20
2019-05-23T21:49:38.559Z,40.30
2019-05-23T21:52:34.811Z,40.40
2019-05-23T21:55:42.019Z,40.40
2019-05-23T21:58:39.853Z,40.50
2019-05-23T22:01:51.636Z,40.60
2019-05-23T22:04:55.334Z,40.60
2019-05-23T22:07:51.207Z,40.60
2019-05-23T22:10:46.658Z,40.60
2019-05-23T22:13:42.589Z,40.70
2019-05-23T22:16:38.925Z,41.00
2019-05-23T22:19:34.740Z,41.00
2019-05-23T22:22:31.311Z,41.10
2019-05-23T22:25:39.075Z,41.20
2019-05-23T22:28:35.613Z,41.30
2019-05-23T22:31:32.601Z,41.30
2019-05-23T22:34:54.586Z,41.40
2019-05-23T22:37:54.849Z,41.40
2019-05-23T22:40:53.891Z,41.40
2019-05-23T22:43:49.617Z,41.40
2019-05-23T22:46:45.695Z,41.60
2019-05-23T22:49:41.653Z,41.70
2019-05-23T22:52:38.476Z,41.70
2019-05-23T22:55:34.375Z,41.70
2019-05-23T22:58:31.283Z,41.80
2019-05-23T23:01:28.301Z,41.80
2019-05-23T23:04:24.641Z,41.80
2019-05-23T23:07:21.911Z,41.90
2019-05-23T23:10:19.327Z,42.00
2019-05-23T23:13:15.440Z,42.00
2019-05-23T23:16:14.404Z,42.10
2019-05-23T23:19:11.881Z,41.80
2019-05-23T23:22:07.883Z,42.30
2019-05-23T23:25:04.605Z,42.30
2019-05-23T23:28:01.086Z,42.40
2019-05-23T23:30:57.740Z,42.50
2019-05-23T23:33:54.456Z,42.60
2019-05-23T23:36:50.827Z,42.70
2019-05-23T23:39:46.952Z,42.90
2019-05-23T23:42:42.571Z,43.00
2019-05-23T23:45:53.942Z,43.10
2019-05-23T23:49:05.374Z,43.20
2019-05-23T23:52:18.603Z,43.30
2019-05-23T23:55:30.910Z,43.40
2019-05-23T23:58:24.557Z,43.50
